Time;durP1;ratioP1;P1;durP2;ratioP2;P2;SDS_P1;SDS_P2;PMS_P1;PMS_P2;Temp;Humidity;BMP_temperature;BMP_pressure;BME280_temperature;BME280_humidity;BME280_pressure;Samples;Min_cycle;Max_cycle;Signal;HPM_P1;HPM_P2
2023/11/30 00:02:14;;;;;;;2.00;0.53;;;;;;;-0.20;100.00;99730.03;5034053;28;20474;-70
2023/11/30 00:04:42;;;;;;;1.97;0.80;;;;;;;-0.22;100.00;99729.47;5034294;28;20470;-70
2023/11/30 00:07:11;;;;;;;1.70;0.30;;;;;;;-0.23;100.00;99727.88;5034548;28;20466;-70
2023/11/30 00:09:38;;;;;;;5.90;1.43;;;;;;;-0.25;100.00;99730.78;5033719;28;20459;-70
2023/11/30 00:12:05;;;;;;;1.70;0.30;;;;;;;-0.32;100.00;99744.28;5034162;28;20556;-70
2023/11/30 00:14:32;;;;;;;1.77;0.40;;;;;;;-0.29;100.00;99745.66;5033415;28;20983;-70
2023/11/30 00:16:59;;;;;;;1.70;0.30;;;;;;;-0.31;100.00;99748.56;5034269;28;20522;-70
2023/11/30 00:19:25;;;;;;;4.27;0.80;;;;;;;-0.34;100.00;99751.72;5033606;28;20490;-70
2023/11/30 00:21:52;;;;;;;3.80;1.47;;;;;;;-0.33;100.00;99761.31;5033448;28;20532;-70
2023/11/30 00:24:19;;;;;;;2.20;1.17;;;;;;;-0.38;100.00;99758.59;5033548;28;20990;-70
2023/11/30 00:26:46;;;;;;;1.90;0.50;;;;;;;-0.41;100.00;99759.09;5033299;28;20482;-70
2023/11/30 00:29:12;;;;;;;2.00;0.70;;;;;;;-0.35;100.00;99763.41;5033884;28;20450;-70
2023/11/30 00:31:39;;;;;;;2.00;0.70;;;;;;;-0.38;100.00;99763.91;5033890;28;20474;-70
2023/11/30 00:34:06;;;;;;;2.40;0.90;;;;;;;-0.47;100.00;99762.75;5033810;28;20502;-70
2023/11/30 00:36:32;;;;;;;3.00;1.30;;;;;;;-0.47;100.00;99762.75;5033519;28;20439;-70
2023/11/30 00:39:00;;;;;;;2.80;1.60;;;;;;;-0.50;100.00;99757.91;5033658;28;20549;-69
2023/11/30 00:41:27;;;;;;;1.87;0.67;;;;;;;-0.51;100.00;99764.28;5033178;28;20435;-70
2023/11/30 00:43:53;;;;;;;1.70;0.30;;;;;;;-0.51;100.00;99774.94;5033507;28;20490;-69
2023/11/30 00:46:20;;;;;;;2.37;0.63;;;;;;;-0.54;100.00;99768.25;5033506;28;20486;-69
2023/11/30 00:48:47;;;;;;;1.97;0.70;;;;;;;-0.56;100.00;99772.22;5033466;28;20514;-69
2023/11/30 00:51:13;;;;;;;2.93;1.17;;;;;;;-0.53;100.00;99771.72;5033483;28;20435;-70
2023/11/30 00:53:41;;;;;;;2.00;0.50;;;;;;;-0.56;100.00;99767.69;5033426;28;20467;-70
2023/11/30 00:56:11;;;;;;;2.73;1.67;;;;;;;-0.58;100.00;99774.31;5033463;28;20526;-70
2023/11/30 00:58:38;;;;;;;1.70;0.30;;;;;;;-0.53;100.00;99771.72;5033232;28;20475;-69
2023/11/30 01:01:05;;;;;;;2.07;0.87;;;;;;;-0.60;100.00;99774.56;5033277;28;20475;-69
2023/11/30 01:03:32;;;;;;;4.10;2.73;;;;;;;-0.64;100.00;99772.66;5032865;28;20483;-69
2023/11/30 01:05:58;;;;;;;2.03;1.07;;;;;;;-0.67;100.00;99773.13;5033478;28;20526;-69
2023/11/30 01:08:25;;;;;;;2.23;0.73;;;;;;;-0.70;100.00;99778.97;5033365;28;20443;-69
2023/11/30 01:10:52;;;;;;;1.70;0.60;;;;;;;-0.71;100.00;99782.66;5055852;22;20498;-65
2023/11/30 01:13:20;;;;;;;1.80;0.60;;;;;;;-0.79;100.00;99794.53;5053292;28;20444;-65
2023/11/30 01:15:46;;;;;;;1.77;0.40;;;;;;;-0.80;100.00;99787.59;5053410;28;20530;-65
2023/11/30 01:18:13;;;;;;;3.07;1.30;;;;;;;-0.78;100.00;99796.94;5052943;28;21032;-65
2023/11/30 01:20:39;;;;;;;1.90;0.57;;;;;;;-0.80;100.00;99796.38;5052930;28;20938;-64
2023/11/30 01:23:06;;;;;;;1.70;0.40;;;;;;;-0.85;100.00;99798.94;5053417;28;20473;-64
2023/11/30 01:25:32;;;;;;;1.77;0.47;;;;;;;-0.91;100.00;99797.28;5053294;28;20488;-65
2023/11/30 01:27:59;;;;;;;3.23;1.17;;;;;;;-0.96;100.00;99805.19;5052568;28;20943;-65
2023/11/30 01:30:28;;;;;;;2.07;0.90;;;;;;;-1.05;100.00;99807.47;5052919;28;20537;-65
2023/11/30 01:32:55;;;;;;;1.80;0.60;;;;;;;-1.08;100.00;99807.94;5052952;28;20473;-65
2023/11/30 01:35:21;;;;;;;2.00;0.63;;;;;;;-1.11;100.00;99804.97;5052816;28;20520;-65
2023/11/30 01:37:48;;;;;;;1.77;0.40;;;;;;;-1.13;100.00;99810.53;5054218;28;20837;-65
2023/11/30 01:40:15;;;;;;;1.70;0.30;;;;;;;-1.24;100.00;99803.44;5056924;28;20433;-65
2023/11/30 01:42:42;;;;;;;2.30;1.13;;;;;;;-1.30;100.00;99810.53;5057017;28;20465;-65
2023/11/30 01:45:09;;;;;;;1.80;0.53;;;;;;;-1.29;100.00;99812.13;5056805;28;20549;-65
2023/11/30 01:47:38;;;;;;;3.10;0.97;;;;;;;-1.27;100.00;99809.25;5056672;28;20438;-65
2023/11/30 01:50:06;;;;;;;1.77;0.50;;;;;;;-1.30;100.00;99805.22;5056646;28;20981;-65
2023/11/30 01:52:32;;;;;;;1.80;0.50;;;;;;;-1.29;100.00;99806.81;5056551;28;20445;-65
2023/11/30 01:55:01;;;;;;;3.60;1.13;;;;;;;-1.30;100.00;99801.75;5056548;28;20512;-65
2023/11/30 01:57:29;;;;;;;1.90;0.60;;;;;;;-1.27;100.00;99809.25;5056860;28;20442;-65
2023/11/30 01:59:57;;;;;;;2.00;0.60;;;;;;;-1.30;100.00;99815.84;5056355;28;20482;-65
2023/11/30 02:02:24;;;;;;;1.97;0.67;;;;;;;-1.39;100.00;99816.50;5056379;28;20918;-66
2023/11/30 02:04:53;;;;;;;2.83;0.93;;;;;;;-1.45;100.00;99814.81;5056236;28;20497;-65
2023/11/30 02:07:20;;;;;;;1.70;0.30;;;;;;;-1.52;100.00;99813.09;5056635;28;20502;-65
2023/11/30 02:09:47;;;;;;;2.33;0.97;;;;;;;-1.55;100.00;99816.25;5055733;28;20445;-65
2023/11/30 02:12:14;;;;;;;1.70;0.40;;;;;;;-1.56;100.00;99814.63;5056028;28;20542;-65
2023/11/30 02:14:40;;;;;;;2.50;0.67;;;;;;;-1.59;100.00;99811.66;5056080;28;20469;-65
2023/11/30 02:17:07;;;;;;;1.77;0.47;;;;;;;-1.63;100.00;99811.34;5056111;28;20469;-65
2023/11/30 02:19:33;;;;;;;1.70;0.30;;;;;;;-1.64;100.00;99808.91;5055951;28;20478;-65
2023/11/30 02:22:01;;;;;;;2.00;0.60;;;;;;;-1.65;100.00;99810.75;5056102;28;20526;-65
2023/11/30 02:24:28;;;;;;;2.30;0.90;;;;;;;-1.66;100.00;99811.00;5056301;28;20545;-65
2023/11/30 02:26:55;;;;;;;1.70;0.40;;;;;;;-1.72;100.00;99818.06;5056402;28;20530;-66
2023/11/30 02:29:21;;;;;;;2.00;0.80;;;;;;;-1.76;100.00;99805.53;5055802;28;20476;-66
2023/11/30 02:31:48;;;;;;;1.70;0.30;;;;;;;-1.76;100.00;99803.69;5056123;28;20521;-65
2023/11/30 02:34:14;;;;;;;5.40;1.33;;;;;;;-1.82;100.00;99804.59;5055614;28;20458;-64
2023/11/30 02:36:41;;;;;;;1.70;0.30;;;;;;;-1.82;100.00;99801.97;5056053;28;20477;-64
2023/11/30 02:39:09;;;;;;;1.70;0.30;;;;;;;-1.81;100.00;99806.25;5055605;28;20481;-64
2023/11/30 02:41:36;;;;;;;2.00;0.83;;;;;;;-1.87;100.00;99802.66;5055576;28;20525;-64
2023/11/30 02:44:02;;;;;;;6.43;2.00;;;;;;;-1.93;100.00;99800.97;5055959;28;20895;-64
2023/11/30 02:46:29;;;;;;;2.23;1.00;;;;;;;-1.92;100.00;99807.09;5055538;28;20525;-65
2023/11/30 02:48:56;;;;;;;2.40;1.23;;;;;;;-1.83;100.00;99811.78;5054611;28;20438;-65
2023/11/30 02:51:22;;;;;;;1.73;0.37;;;;;;;-1.90;100.00;99805.03;5055169;28;20524;-65
2023/11/30 02:53:49;;;;;;;1.70;0.30;;;;;;;-1.88;100.00;99813.53;5055520;28;20623;-65
2023/11/30 02:56:17;;;;;;;1.90;0.50;;;;;;;-1.87;100.00;99812.47;5055347;28;20444;-65
2023/11/30 02:58:44;;;;;;;1.70;0.40;;;;;;;-1.91;100.00;99814.81;5055213;28;20514;-65
2023/11/30 03:01:10;;;;;;;1.70;0.40;;;;;;;-1.98;100.00;99814.16;5055296;28;20469;-65
2023/11/30 03:03:37;;;;;;;2.23;0.83;;;;;;;-1.95;100.00;99816.31;5055176;28;20541;-65
2023/11/30 03:06:09;;;;;;;1.97;0.97;;;;;;;-2.00;100.00;99821.53;5055534;28;20438;-65
2023/11/30 03:08:36;;;;;;;1.70;0.30;;;;;;;-2.13;100.00;99813.88;5055362;28;20458;-65
2023/11/30 03:11:02;;;;;;;1.70;0.30;;;;;;;-2.16;100.00;99811.69;5055000;28;20856;-65
2023/11/30 03:13:30;;;;;;;1.70;0.30;;;;;;;-2.17;100.00;99810.91;5055002;28;20557;-65
2023/11/30 03:15:57;;;;;;;2.37;0.83;;;;;;;-2.28;100.00;99804.56;5054801;28;20442;-65
2023/11/30 03:18:24;;;;;;;1.70;0.30;;;;;;;-2.31;100.00;99813.00;5054627;28;20803;-65
2023/11/30 03:20:50;;;;;;;1.90;0.70;;;;;;;-2.33;100.00;99807.13;5055256;28;20529;-65
2023/11/30 03:23:17;;;;;;;1.70;0.30;;;;;;;-2.37;100.00;99807.84;5054781;28;20525;-65
2023/11/30 03:25:43;;;;;;;1.77;0.40;;;;;;;-2.36;100.00;99812.09;5054794;28;20533;-65
2023/11/30 03:28:10;;;;;;;1.70;0.40;;;;;;;-2.40;100.00;99800.34;5054859;28;20441;-65
2023/11/30 03:30:38;;;;;;;1.70;0.30;;;;;;;-2.43;100.00;99804.28;5054763;28;20466;-65
2023/11/30 03:33:05;;;;;;;1.90;0.47;;;;;;;-2.41;100.00;99804.03;5054719;28;20445;-65
2023/11/30 03:35:31;;;;;;;4.10;1.60;;;;;;;-2.56;100.00;99807.22;5054652;28;20455;-65
2023/11/30 03:37:58;;;;;;;1.70;0.30;;;;;;;-2.50;100.00;99798.31;5054907;28;20438;-65
2023/11/30 03:40:24;;;;;;;2.10;0.70;;;;;;;-2.48;100.00;99798.84;5054574;28;20573;-66
2023/11/30 03:42:51;;;;;;;1.67;0.40;;;;;;;-2.44;100.00;99796.56;5054565;28;20484;-66
2023/11/30 03:45:18;;;;;;;1.70;0.30;;;;;;;-2.59;100.00;99795.22;5054425;28;20516;-66
2023/11/30 03:47:46;;;;;;;1.70;0.30;;;;;;;-2.66;100.00;99791.06;5054473;28;20438;-66
2023/11/30 03:50:12;;;;;;;1.70;0.30;;;;;;;-2.69;100.00;99788.91;5054049;28;20529;-65
2023/11/30 03:52:39;;;;;;;1.90;0.73;;;;;;;-2.77;100.00;99787.41;5054384;28;20438;-65
2023/11/30 03:55:06;;;;;;;2.17;1.27;;;;;;;-2.90;100.00;99791.13;5054498;28;20489;-65
2023/11/30 03:57:33;;;;;;;2.20;0.50;;;;;;;-2.96;100.00;99788.59;5053918;28;20942;-65
2023/11/30 03:59:59;;;;;;;1.70;0.30;;;;;;;-2.87;100.00;99788.00;5054126;28;20484;-65
2023/11/30 04:02:26;;;;;;;1.70;0.40;;;;;;;-2.81;100.00;99794.22;5053964;28;20478;-66
2023/11/30 04:04:54;;;;;;;2.50;0.80;;;;;;;-2.81;100.00;99797.66;5054107;28;20537;-66
2023/11/30 04:07:20;;;;;;;1.70;0.30;;;;;;;-2.94;100.00;99800.56;5053931;28;20521;-65
2023/11/30 04:09:47;;;;;;;1.70;0.40;;;;;;;-3.10;100.00;99793.31;5054029;28;20448;-65
2023/11/30 04:12:14;;;;;;;1.70;0.30;;;;;;;-3.11;100.00;99799.66;5053814;28;20482;-65
2023/11/30 04:14:40;;;;;;;1.70;0.30;;;;;;;-2.99;100.00;99797.00;5053724;28;20541;-65
2023/11/30 04:17:07;;;;;;;1.70;0.30;;;;;;;-3.03;100.00;99801.16;5054037;28;20438;-65
2023/11/30 04:19:34;;;;;;;2.00;0.67;;;;;;;-3.15;100.00;99795.84;5053716;28;20489;-65
2023/11/30 04:22:02;;;;;;;1.80;0.53;;;;;;;-3.20;100.00;99795.72;5053620;28;20531;-65
2023/11/30 04:24:29;;;;;;;1.70;0.30;;;;;;;-3.18;100.00;99788.38;5053655;28;20490;-65
2023/11/30 04:26:55;;;;;;;1.70;0.30;;;;;;;-3.23;100.00;99791.72;5053735;28;20446;-65
2023/11/30 04:29:22;;;;;;;2.00;0.50;;;;;;;-3.17;100.00;99790.00;5053681;28;20918;-65
2023/11/30 04:31:49;;;;;;;7.20;0.97;;;;;;;-3.22;100.00;99781.94;5053894;28;20441;-65
2023/11/30 04:34:15;;;;;;;1.70;0.40;;;;;;;-3.33;100.00;99786.16;5053897;28;20462;-65
2023/11/30 04:36:42;;;;;;;1.67;0.40;;;;;;;-3.49;100.00;99785.03;5053339;28;20442;-65
2023/11/30 04:39:11;;;;;;;1.70;0.40;;;;;;;-3.60;100.00;99783.97;5053500;28;20989;-65
2023/11/30 04:41:38;;;;;;;2.37;1.33;;;;;;;-3.63;100.00;99783.59;5053507;28;20445;-65
2023/11/30 04:44:05;;;;;;;1.70;0.40;;;;;;;-3.73;100.00;99784.16;5053581;28;20512;-65
2023/11/30 04:46:31;;;;;;;2.80;1.17;;;;;;;-3.77;100.00;99784.84;5054066;28;20442;-65
2023/11/30 04:48:59;;;;;;;8.50;1.93;;;;;;;-3.81;100.00;99785.31;5053309;28;20465;-65
2023/11/30 04:51:26;;;;;;;1.70;0.40;;;;;;;-3.89;100.00;99793.56;5053634;28;20449;-65
2023/11/30 04:53:52;;;;;;;1.70;0.30;;;;;;;-3.89;100.00;99796.22;5053490;28;20863;-65
2023/11/30 04:56:20;;;;;;;1.70;0.30;;;;;;;-3.92;100.00;99796.66;5053244;28;20443;-65
2023/11/30 04:58:47;;;;;;;9.30;1.73;;;;;;;-3.88;100.00;99803.13;5053083;28;20549;-65
2023/11/30 05:01:14;;;;;;;1.70;0.30;;;;;;;-3.84;100.00;99801.63;5053600;28;20446;-65
2023/11/30 05:03:40;;;;;;;1.70;0.30;;;;;;;-3.92;100.00;99803.78;5053377;28;20549;-65
2023/11/30 05:06:08;;;;;;;3.20;1.50;;;;;;;-3.93;100.00;99807.47;5053104;28;20474;-65
2023/11/30 05:08:34;;;;;;;1.70;0.30;;;;;;;-4.15;100.00;99801.88;5053551;28;20491;-65
2023/11/30 05:11:01;;;;;;;1.70;0.40;;;;;;;-4.24;100.00;99800.56;5053105;28;20905;-65
2023/11/30 05:13:29;;;;;;;1.70;0.40;;;;;;;-4.19;100.00;99808.63;5054831;28;21053;-65
2023/11/30 05:15:56;;;;;;;1.70;0.40;;;;;;;-4.32;100.00;99815.69;5057123;28;20445;-65
2023/11/30 05:18:22;;;;;;;2.30;0.70;;;;;;;-4.33;100.00;99814.09;5057172;28;20434;-65
2023/11/30 05:20:49;;;;;;;1.77;0.30;;;;;;;-4.33;100.00;99814.09;5057072;28;20488;-65
2023/11/30 05:23:16;;;;;;;1.70;0.40;;;;;;;-4.22;100.00;99806.44;5057109;28;20533;-65
2023/11/30 05:25:43;;;;;;;1.70;0.40;;;;;;;-4.28;100.00;99815.25;5057108;28;20454;-65
2023/11/30 05:28:09;;;;;;;1.70;0.30;;;;;;;-4.23;100.00;99816.19;5056703;28;20500;-65
2023/11/30 05:30:37;;;;;;;1.70;0.30;;;;;;;-4.27;100.00;99806.28;5057063;28;20438;-65
2023/11/30 05:33:04;;;;;;;1.70;0.40;;;;;;;-4.28;100.00;99815.25;5056637;28;20214;-65
2023/11/30 05:35:31;;;;;;;1.70;0.33;;;;;;;-4.35;100.00;99818.78;5056818;28;20851;-65
2023/11/30 05:37:58;;;;;;;1.80;0.50;;;;;;;-4.38;100.00;99815.78;5056968;28;20540;-65
2023/11/30 05:40:25;;;;;;;1.70;0.30;;;;;;;-4.54;100.00;99813.75;5056813;28;20485;-65
2023/11/30 05:42:51;;;;;;;1.90;0.60;;;;;;;-4.61;100.00;99816.44;5056996;28;20258;-65
2023/11/30 05:45:18;;;;;;;1.70;0.30;;;;;;;-4.59;100.00;99817.84;5056589;28;20489;-65
2023/11/30 05:47:46;;;;;;;1.77;0.40;;;;;;;-4.54;100.00;99822.47;5056321;28;20504;-65
2023/11/30 05:50:13;;;;;;;1.90;0.67;;;;;;;-4.50;100.00;99821.00;5056738;28;20532;-66
2023/11/30 05:52:40;;;;;;;2.00;0.80;;;;;;;-4.54;100.00;99824.31;5056402;28;20492;-65
2023/11/30 05:55:07;;;;;;;1.73;0.30;;;;;;;-4.56;100.00;99837.72;5056739;28;20457;-65
2023/11/30 05:57:35;;;;;;;1.70;0.40;;;;;;;-4.57;100.00;99829.00;5056341;28;20464;-65
2023/11/30 06:00:03;;;;;;;1.80;0.47;;;;;;;-4.58;100.00;99827.38;5056115;28;20259;-67
2023/11/30 06:02:31;;;;;;;1.70;0.30;;;;;;;-4.71;100.00;99832.00;5056223;28;20446;-66
2023/11/30 06:04:59;;;;;;;14.50;3.13;;;;;;;-4.72;100.00;99836.50;5056189;28;20488;-65
2023/11/30 06:07:26;;;;;;;1.70;0.30;;;;;;;-4.64;100.00;99836.19;5057104;28;20438;-66
2023/11/30 06:09:52;;;;;;;1.73;0.40;;;;;;;-4.58;100.00;99840.59;5056406;28;20466;-66
2023/11/30 06:12:19;;;;;;;1.80;0.50;;;;;;;-4.69;100.00;99836.06;5056621;28;20419;-66
2023/11/30 06:14:46;;;;;;;1.80;0.30;;;;;;;-4.74;100.00;99848.28;5055837;28;21049;-66
2023/11/30 06:17:13;;;;;;;1.70;0.40;;;;;;;-4.76;100.00;99840.59;5056098;28;20438;-65
2023/11/30 06:19:40;;;;;;;1.70;0.40;;;;;;;-4.70;100.00;99841.53;5056333;28;20521;-65
2023/11/30 06:22:08;;;;;;;1.70;0.40;;;;;;;-4.64;100.00;99840.69;5056321;28;20442;-65
2023/11/30 06:24:35;;;;;;;1.70;0.30;;;;;;;-4.54;100.00;99843.63;5055579;28;20459;-65
2023/11/30 06:27:02;;;;;;;2.13;1.03;;;;;;;-4.50;100.00;99847.44;5056276;28;20466;-65
2023/11/30 06:29:29;;;;;;;1.80;0.50;;;;;;;-4.46;100.00;99848.59;5055572;28;20910;-65
2023/11/30 06:32:00;;;;;;;1.70;0.30;;;;;;;-4.59;100.00;99851.41;5056398;28;20203;-65
2023/11/30 06:34:26;;;;;;;1.70;0.30;;;;;;;-4.64;100.00;99844.13;5055843;28;20458;-66
2023/11/30 06:36:53;;;;;;;1.70;0.30;;;;;;;-4.59;100.00;99851.41;5055920;28;20517;-66
2023/11/30 06:39:21;;;;;;;1.70;0.30;;;;;;;-4.62;100.00;99857.09;5056271;28;20441;-66
2023/11/30 06:41:48;;;;;;;1.70;0.30;;;;;;;-4.55;100.00;99846.47;5055801;28;20470;-65
2023/11/30 06:44:15;;;;;;;1.70;0.30;;;;;;;-4.50;100.00;99851.91;5055555;28;20493;-66
2023/11/30 06:46:42;;;;;;;1.70;0.30;;;;;;;-4.41;100.00;99855.88;5055691;28;20529;-66
2023/11/30 06:49:09;;;;;;;2.00;0.77;;;;;;;-4.29;100.00;99853.28;5055629;28;20943;-65
2023/11/30 06:51:35;;;;;;;2.43;0.90;;;;;;;-4.28;100.00;99852.28;5055875;28;20500;-65
2023/11/30 06:54:02;;;;;;;1.70;0.30;;;;;;;-4.22;100.00;99852.19;5055474;28;20466;-65
2023/11/30 06:56:30;;;;;;;1.70;0.40;;;;;;;-4.17;100.00;99856.78;5055517;28;20526;-65
2023/11/30 06:58:57;;;;;;;1.70;0.30;;;;;;;-4.13;100.00;99856.13;5055431;28;20473;-66
2023/11/30 07:01:25;;;;;;;1.70;0.40;;;;;;;-4.14;100.00;99861.66;5055238;28;20489;-65
2023/11/30 07:03:52;;;;;;;1.80;0.40;;;;;;;-4.00;100.00;99865.72;5055168;28;20478;-65
2023/11/30 07:06:19;;;;;;;1.70;0.40;;;;;;;-4.00;100.00;99871.03;5055235;28;20533;-63
2023/11/30 07:08:46;;;;;;;1.70;0.30;;;;;;;-4.07;100.00;99873.75;5055263;28;20442;-65
2023/11/30 07:11:14;;;;;;;4.70;0.70;;;;;;;-4.14;100.00;99872.22;5057808;22;20931;-70
2023/11/30 07:13:42;;;;;;;1.73;0.30;;;;;;;-4.10;100.00;99870.75;5035112;28;20514;-66
2023/11/30 07:16:10;;;;;;;9.53;1.70;;;;;;;-3.96;100.00;99869.53;5035281;28;20564;-67
2023/11/30 07:18:37;;;;;;;2.60;1.07;;;;;;;-3.99;100.00;99877.91;5035214;28;20882;-66
2023/11/30 07:21:04;;;;;;;1.70;0.30;;;;;;;-3.96;100.00;99869.53;5034734;28;20882;-67
2023/11/30 07:23:30;;;;;;;1.83;0.60;;;;;;;-3.92;100.00;99876.00;5035077;28;20455;-67
2023/11/30 07:25:58;;;;;;;2.30;0.83;;;;;;;-3.94;100.00;99870.16;5035078;28;20844;-67
2023/11/30 07:28:25;;;;;;;1.70;0.37;;;;;;;-3.91;100.00;99874.16;5034952;28;20443;-67
2023/11/30 07:30:53;;;;;;;1.70;0.30;;;;;;;-3.88;100.00;99874.53;5035287;28;20884;-67
2023/11/30 07:33:20;;;;;;;1.70;0.30;;;;;;;-3.85;100.00;99867.97;5034782;28;20962;-67
2023/11/30 07:35:46;;;;;;;1.90;0.77;;;;;;;-3.83;100.00;99879.94;5034206;28;20447;-66
2023/11/30 07:38:13;;;;;;;1.70;0.40;;;;;;;-3.70;100.00;99880.81;5034536;28;20556;-66
2023/11/30 07:40:40;;;;;;;1.70;0.30;;;;;;;-3.67;100.00;99877.72;5034383;28;20561;-66
2023/11/30 07:43:07;;;;;;;1.80;0.60;;;;;;;-3.58;100.00;99884.31;5034697;28;20452;-67
2023/11/30 07:45:33;;;;;;;1.70;0.40;;;;;;;-3.58;100.00;99887.75;5034859;28;20482;-67
2023/11/30 07:48:03;;;;;;;3.70;0.97;;;;;;;-3.54;100.00;99893.41;5034609;28;20884;-67
2023/11/30 07:50:29;;;;;;;1.90;0.53;;;;;;;-3.40;100.00;99891.38;5034521;28;20466;-66
2023/11/30 07:52:56;;;;;;;1.70;0.40;;;;;;;-3.18;100.00;99896.94;5034699;28;20463;-67
2023/11/30 07:55:22;;;;;;;2.33;1.00;;;;;;;-3.02;100.00;99892.81;5034150;28;20524;-67
2023/11/30 07:57:49;;;;;;;3.60;1.33;;;;;;;-2.97;100.00;99891.09;5034379;28;20869;-67
2023/11/30 08:00:17;;;;;;;2.63;1.53;;;;;;;-2.93;100.00;99889.59;5034322;28;20589;-67
2023/11/30 08:02:43;;;;;;;2.53;0.80;;;;;;;-2.84;100.00;99892.72;5034700;28;20431;-67
2023/11/30 08:05:12;;;;;;;2.67;1.80;;;;;;;-2.78;100.00;99894.47;5034201;28;20457;-67
2023/11/30 08:07:38;;;;;;;1.70;0.40;;;;;;;-2.63;100.00;99901.94;5034564;28;20501;-67
2023/11/30 08:10:06;;;;;;;4.57;3.60;;;;;;;-2.62;100.00;99904.34;5034198;28;20470;-67
2023/11/30 08:12:32;;;;;;;5.50;2.37;;;;;;;-2.54;100.00;99906.66;5034215;28;20444;-67
2023/11/30 08:14:59;;;;;;;1.80;0.50;;;;;;;-2.53;100.00;99907.44;5034066;28;20469;-67
2023/11/30 08:17:26;;;;;;;1.70;0.30;;;;;;;-2.52;100.00;99898.47;5033954;28;20449;-67
2023/11/30 08:19:52;;;;;;;2.20;0.87;;;;;;;-2.49;100.00;99905.94;5034379;28;20435;-67
2023/11/30 08:22:20;;;;;;;1.90;0.53;;;;;;;-2.42;100.00;99905.84;5033998;28;20543;-67
2023/11/30 08:24:47;;;;;;;3.30;0.87;;;;;;;-2.41;100.00;99908.25;5033899;28;20455;-68
2023/11/30 08:27:13;;;;;;;1.80;0.50;;;;;;;-2.30;100.00;99902.16;5034244;28;20443;-67
2023/11/30 08:29:41;;;;;;;1.70;0.30;;;;;;;-2.18;100.00;99906.59;5033878;28;20457;-67
2023/11/30 08:32:08;;;;;;;1.70;0.30;;;;;;;-2.12;100.00;99914.44;5033454;28;20526;-67
2023/11/30 08:34:34;;;;;;;2.60;0.70;;;;;;;-2.07;100.00;99916.41;5033489;28;21033;-67
2023/11/30 08:37:01;;;;;;;1.70;0.40;;;;;;;-1.93;100.00;99914.28;5033788;28;20521;-67
2023/11/30 08:39:30;;;;;;;1.90;0.70;;;;;;;-1.74;100.00;99904.28;5033351;28;20939;-67
2023/11/30 08:41:57;;;;;;;2.93;1.23;;;;;;;-1.62;100.00;99902.41;5033581;28;20540;-67
2023/11/30 08:44:24;;;;;;;3.10;1.70;;;;;;;-1.62;100.00;99900.53;5033208;28;20487;-67
2023/11/30 08:46:51;;;;;;;2.10;1.20;;;;;;;-1.54;100.00;99900.16;5033102;28;20840;-67
2023/11/30 08:49:18;;;;;;;2.47;1.20;;;;;;;-1.47;100.00;99897.34;5033893;28;20443;-67
2023/11/30 08:51:44;;;;;;;3.47;2.63;;;;;;;-1.37;100.00;99899.41;5033775;28;20526;-68
2023/11/30 08:54:11;;;;;;;2.90;1.53;;;;;;;-1.29;100.00;99897.13;5033300;28;21001;-68
2023/11/30 08:56:39;;;;;;;2.10;0.70;;;;;;;-1.11;100.00;99905.91;5033605;28;20475;-69
2023/11/30 08:59:06;;;;;;;4.83;3.80;;;;;;;-1.09;100.00;99906.50;5033222;28;20559;-69
2023/11/30 09:01:33;;;;;;;1.77;0.43;;;;;;;-1.01;100.00;99911.44;5033390;28;20576;-68
2023/11/30 09:04:02;;;;;;;4.23;1.80;;;;;;;-0.90;100.00;99912.38;5033427;28;20493;-68
2023/11/30 09:06:29;;;;;;;2.27;1.53;;;;;;;-0.88;100.00;99913.75;5033424;28;20451;-70
2023/11/30 09:08:57;;;;;;;1.83;0.50;;;;;;;-0.78;100.00;99913.91;5033537;28;20450;-69
2023/11/30 09:11:23;;;;;;;4.50;2.53;;;;;;;-0.74;100.00;99918.75;5033314;28;21006;-68
2023/11/30 09:13:53;;;;;;;4.57;1.87;;;;;;;-0.75;100.00;99912.63;5032963;28;21044;-68
2023/11/30 09:16:20;;;;;;;6.13;0.80;;;;;;;-0.77;100.00;99910.19;5033093;28;20482;-72
2023/11/30 09:18:46;;;;;;;1.80;0.53;;;;;;;-0.73;100.00;99915.03;5033162;28;20951;-70
2023/11/30 09:21:13;;;;;;;1.90;0.67;;;;;;;-0.73;100.00;99915.03;5033072;28;20514;-68
2023/11/30 09:23:40;;;;;;;2.33;1.30;;;;;;;-0.66;100.00;99921.00;5033762;28;20475;-69
2023/11/30 09:26:07;;;;;;;1.80;0.53;;;;;;;-0.66;100.00;99913.03;5033374;28;20863;-68
2023/11/30 09:28:37;;;;;;;3.20;1.90;;;;;;;-0.52;100.00;99922.28;5033827;28;20439;-68
2023/11/30 09:31:05;;;;;;;3.27;1.00;;;;;;;-0.41;100.00;99923.22;5033493;28;20858;-68
2023/11/30 09:33:32;;;;;;;2.97;2.10;;;;;;;-0.45;100.00;99911.44;5033147;28;20463;-68
2023/11/30 09:36:01;;;;;;;2.03;0.77;;;;;;;-0.36;100.00;99913.44;5033217;28;20807;-70
2023/11/30 09:38:27;;;;;;;2.67;1.13;;;;;;;-0.41;100.00;99913.38;5032852;28;20450;-67
2023/11/30 09:40:54;;;;;;;8.03;1.30;;;;;;;-0.42;100.00;99901.13;5033273;28;20893;-68
2023/11/30 09:43:21;;;;;;;3.00;1.60;;;;;;;-0.28;100.00;99896.25;5033313;28;20438;-69
2023/11/30 09:45:49;;;;;;;4.50;2.10;;;;;;;-0.28;100.00;99888.28;5033474;28;20443;-69
2023/11/30 09:48:17;;;;;;;4.63;2.23;;;;;;;-0.23;100.00;99892.84;5033471;28;20443;-69
2023/11/30 09:50:44;;;;;;;11.23;1.40;;;;;;;-0.32;100.00;99887.94;5033358;28;20435;-69
2023/11/30 09:53:11;;;;;;;2.93;1.53;;;;;;;-0.27;100.00;99892.53;5033211;28;20449;-69
2023/11/30 09:55:38;;;;;;;4.83;2.63;;;;;;;-0.21;100.00;99886.25;5033506;28;20471;-69
2023/11/30 09:58:05;;;;;;;1.83;0.43;;;;;;;-0.12;100.00;99882.09;5033222;28;20435;-69
2023/11/30 10:00:32;;;;;;;4.20;2.00;;;;;;;-0.11;100.00;99885.56;5036278;28;20947;-69
2023/11/30 10:02:59;;;;;;;2.83;0.87;;;;;;;-0.11;100.00;99874.91;5036931;28;20442;-68
2023/11/30 10:05:28;;;;;;;2.80;1.80;;;;;;;-0.01;100.00;99883.81;5036985;28;20463;-68
2023/11/30 10:07:58;;;;;;;3.70;2.50;;;;;;;0.01;100.00;99878.25;5036714;28;20822;-68
2023/11/30 10:10:24;;;;;;;3.10;0.70;;;;;;;-0.07;100.00;99881.34;5036631;28;20521;-68
2023/11/30 10:12:51;;;;;;;1.90;0.70;;;;;;;0.07;100.00;99879.91;5036629;28;20514;-69
2023/11/30 10:15:18;;;;;;;4.30;3.30;;;;;;;0.16;100.00;99875.75;5036617;28;20546;-68
2023/11/30 10:17:44;;;;;;;2.00;0.80;;;;;;;0.21;100.00;99877.66;5036726;28;20462;-68
2023/11/30 10:20:12;;;;;;;5.20;1.03;;;;;;;0.21;100.00;99870.47;5036183;28;20526;-67
2023/11/30 10:22:40;;;;;;;8.30;1.93;;;;;;;0.14;100.00;99861.91;5036224;28;20887;-68
2023/11/30 10:25:08;;;;;;;6.47;1.90;;;;;;;0.13;100.00;99870.13;5036528;28;20498;-67
2023/11/30 10:27:36;;;;;;;3.50;1.77;;;;;;;0.16;100.00;99866.97;5035872;28;20931;-69
2023/11/30 10:30:04;;;;;;;3.47;1.50;;;;;;;0.16;100.00;99866.97;5036071;28;20489;-69
2023/11/30 10:32:32;;;;;;;2.30;1.53;;;;;;;0.24;100.00;99864.66;5036046;28;20439;-70
2023/11/30 10:35:05;;;;;;;7.53;3.23;;;;;;;0.29;100.00;99863.09;5035806;28;20467;-70
2023/11/30 10:37:34;;;;;;;2.63;1.50;;;;;;;0.52;100.00;99857.47;5035662;28;20420;-70
2023/11/30 10:40:09;;;;;;;5.50;3.77;;;;;;;0.65;100.00;99856.25;5035744;28;20892;-70
2023/11/30 10:42:36;;;;;;;5.70;1.17;;;;;;;0.77;100.00;99854.22;5035647;28;20502;-70
2023/11/30 10:45:06;;;;;;;2.00;0.50;;;;;;;0.79;100.00;99853.97;5036060;28;20822;-70
2023/11/30 10:47:34;;;;;;;3.50;1.53;;;;;;;0.84;100.00;99840.66;5036074;28;20478;-70
2023/11/30 10:50:03;;;;;;;3.00;1.47;;;;;;;1.00;100.00;99858.41;5035532;28;21006;-70
2023/11/30 10:52:31;;;;;;;5.40;1.77;;;;;;;1.06;100.00;99846.69;5035806;28;20431;-70
2023/11/30 10:55:06;;;;;;;1.80;0.50;;;;;;;1.11;100.00;99849.41;5035904;28;20467;-70
2023/11/30 10:57:33;;;;;;;4.70;1.50;;;;;;;1.22;99.79;99844.94;5035737;28;20427;-70
2023/11/30 11:00:01;;;;;;;2.20;0.70;;;;;;;1.24;99.41;99843.63;5035677;28;20467;-70
2023/11/30 11:02:36;;;;;;;3.70;1.73;;;;;;;1.26;99.27;99841.50;5035800;28;20486;-70
2023/11/30 11:05:09;;;;;;;2.80;1.80;;;;;;;1.32;99.44;99834.31;5035723;28;20469;-70
2023/11/30 11:07:37;;;;;;;3.53;1.37;;;;;;;1.34;99.29;99839.41;5036713;28;20830;-70
2023/11/30 11:10:07;;;;;;;2.00;0.97;;;;;;;1.42;98.62;99838.94;5034690;28;20546;-68
2023/11/30 11:12:39;;;;;;;2.33;1.43;;;;;;;1.55;98.15;99837.63;5035801;28;20503;-73
2023/11/30 11:15:09;;;;;;;1.93;0.80;;;;;;;1.65;98.23;99817.16;5036037;28;20827;-69
2023/11/30 11:17:47;;;;;;;3.20;1.07;;;;;;;1.72;97.12;99828.38;5035590;28;20451;-70
2023/11/30 11:20:23;;;;;;;2.90;1.83;;;;;;;1.82;97.35;99827.63;5035933;28;20416;-70
2023/11/30 11:22:53;;;;;;;6.40;3.30;;;;;;;1.81;96.16;99823.34;5035416;28;21045;-69
2023/11/30 11:25:21;;;;;;;3.10;1.33;;;;;;;1.83;95.60;99818.56;5035461;28;20463;-69
2023/11/30 11:27:48;;;;;;;2.37;1.17;;;;;;;2.35;96.89;99809.59;5035798;28;20535;-69